Time;durP1;ratioP1;P1;durP2;ratioP2;P2;SDS_P1;SDS_P2;PMS_P1;PMS_P2;Temp;Humidity;BMP_temperature;BMP_pressure;BME280_temperature;BME280_humidity;BME280_pressure;Samples;Min_cycle;Max_cycle;Signal;HPM_P1;HPM_P2
2022/11/24 00:01:49;;;;;;;39.85;18.52;;;;;;;;;;5035077;28;20028;-80
2022/11/24 00:04:14;;;;;;;38.05;18.65;;;;;;;;;;5035234;28;20124;-80
2022/11/24 00:06:40;;;;;;;36.15;17.75;;;;;;;;;;5017738;28;20032;-80
2022/11/24 00:09:06;;;;;;;45.30;18.80;;;;;;;;;;5035077;28;20067;-80
2022/11/24 00:11:33;;;;;;;39.45;18.15;;;;;;;;;;5035300;28;20033;-80
2022/11/24 00:13:58;;;;;;;38.60;18.45;;;;;;;;;;5035291;28;20030;-80
2022/11/24 00:16:26;;;;;;;38.28;17.45;;;;;;;;;;5017451;28;20037;-81
2022/11/24 00:18:52;;;;;;;37.65;18.27;;;;;;;;;;5035075;28;20060;-81
2022/11/24 00:21:18;;;;;;;38.28;18.67;;;;;;;;;;5021436;28;20124;-80
2022/11/24 00:23:44;;;;;;;41.97;18.98;;;;;;;;;;5017058;28;20104;-81
2022/11/24 00:26:15;;;;;;;40.53;19.35;;;;;;;;;;5017216;28;20091;-80
2022/11/24 00:28:41;;;;;;;37.50;17.80;;;;;;;;;;5035043;28;20491;-80
2022/11/24 00:31:13;;;;;;;38.00;19.83;;;;;;;;;;5001246;28;20144;-81
2022/11/24 00:33:39;;;;;;;41.08;20.23;;;;;;;;;;5017254;28;20080;-79
2022/11/24 00:36:05;;;;;;;37.58;19.08;;;;;;;;;;5034839;28;20033;-79
2022/11/24 00:38:30;;;;;;;42.40;19.52;;;;;;;;;;5017079;28;20044;-80
2022/11/24 00:40:57;;;;;;;40.75;19.20;;;;;;;;;;5020854;28;20048;-79
2022/11/24 00:43:22;;;;;;;39.20;19.25;;;;;;;;;;5019915;28;20143;-78
2022/11/24 00:45:49;;;;;;;41.53;19.83;;;;;;;;;;5016976;28;20048;-79
2022/11/24 00:48:14;;;;;;;46.20;20.20;;;;;;;;;;5000740;28;20348;-79
2022/11/24 00:50:40;;;;;;;44.90;20.10;;;;;;;;;;5017092;28;20040;-79
2022/11/24 00:53:05;;;;;;;42.63;19.70;;;;;;;;;;5016264;28;20049;-80
2022/11/24 00:55:31;;;;;;;47.72;20.45;;;;;;;;;;5034356;28;20035;-80
2022/11/24 00:57:56;;;;;;;43.60;20.65;;;;;;;;;;5016682;28;20469;-79
2022/11/24 01:00:22;;;;;;;45.15;20.40;;;;;;;;;;5016757;28;20033;-79
2022/11/24 01:02:47;;;;;;;45.25;20.73;;;;;;;;;;5022926;28;20358;-79
2022/11/24 01:05:12;;;;;;;55.67;21.88;;;;;;;;;;5035546;28;20025;-79
2022/11/24 01:07:38;;;;;;;49.22;21.77;;;;;;;;;;5016688;28;20494;-79
2022/11/24 01:10:04;;;;;;;50.13;22.25;;;;;;;;;;5016425;28;20312;-79
2022/11/24 01:12:29;;;;;;;47.67;20.98;;;;;;;;;;5016217;28;20025;-80
2022/11/24 01:14:55;;;;;;;46.15;20.48;;;;;;;;;;5016539;28;20033;-80
2022/11/24 01:17:20;;;;;;;46.80;20.05;;;;;;;;;;5033938;28;20025;-80
2022/11/24 01:19:47;;;;;;;43.85;19.05;;;;;;;;;;5033873;28;20028;-79
2022/11/24 01:22:13;;;;;;;42.67;19.95;;;;;;;;;;5016628;28;20030;-79
2022/11/24 01:24:38;;;;;;;39.28;19.52;;;;;;;;;;5018273;28;20121;-79
2022/11/24 01:27:04;;;;;;;41.45;19.98;;;;;;;;;;4999904;28;20025;-82
2022/11/24 01:29:29;;;;;;;45.92;21.33;;;;;;;;;;5016266;28;20033;-80
2022/11/24 01:31:55;;;;;;;42.80;20.45;;;;;;;;;;5016492;28;20052;-80
2022/11/24 01:34:20;;;;;;;47.85;20.73;;;;;;;;;;5016025;28;20029;-80
2022/11/24 01:36:46;;;;;;;44.45;20.98;;;;;;;;;;5033698;28;20696;-80
2022/11/24 01:39:12;;;;;;;47.20;22.13;;;;;;;;;;5033713;28;20026;-80
2022/11/24 01:41:37;;;;;;;41.90;20.42;;;;;;;;;;5033833;28;20065;-80
2022/11/24 01:44:23;;;;;;;47.60;21.90;;;;;;;;;;5038863;28;20079;-80
2022/11/24 01:46:51;;;;;;;44.90;20.75;;;;;;;;;;5024461;28;20034;-80
2022/11/24 01:49:17;;;;;;;45.97;21.33;;;;;;;;;;5016507;28;20125;-80
2022/11/24 01:52:11;;;;;;;42.65;20.10;;;;;;;;;;5033642;28;20041;-80
2022/11/24 01:54:46;;;;;;;45.10;19.77;;;;;;;;;;5015693;28;20401;-80
2022/11/24 01:57:15;;;;;;;44.25;20.20;;;;;;;;;;5000003;28;20044;-81
2022/11/24 01:59:41;;;;;;;42.90;21.43;;;;;;;;;;5016213;28;20041;-80
2022/11/24 02:02:07;;;;;;;52.72;20.27;;;;;;;;;;5016367;28;20043;-80
2022/11/24 02:04:32;;;;;;;44.50;20.02;;;;;;;;;;5007830;28;20040;-78
2022/11/24 02:06:58;;;;;;;42.63;19.92;;;;;;;;;;5002581;28;20451;-80
2022/11/24 02:09:40;;;;;;;42.85;20.70;;;;;;;;;;4999793;28;20087;-81
2022/11/24 02:12:06;;;;;;;43.22;19.83;;;;;;;;;;5000387;28;20033;-79
2022/11/24 02:14:32;;;;;;;43.45;20.08;;;;;;;;;;5016273;28;20033;-80
2022/11/24 02:16:58;;;;;;;46.95;20.15;;;;;;;;;;4999709;28;20029;-80
2022/11/24 02:19:39;;;;;;;40.85;19.63;;;;;;;;;;5015647;28;20029;-80
2022/11/24 02:22:25;;;;;;;46.28;20.30;;;;;;;;;;5016091;28;20037;-80
2022/11/24 02:25:22;;;;;;;44.78;19.73;;;;;;;;;;5026232;28;20033;-83
2022/11/24 02:27:48;;;;;;;39.38;18.38;;;;;;;;;;5042229;28;20034;-80
2022/11/24 02:30:13;;;;;;;42.92;20.00;;;;;;;;;;4987084;28;20037;-79
2022/11/24 02:32:39;;;;;;;38.20;18.00;;;;;;;;;;5037100;28;20025;-79
2022/11/24 02:35:05;;;;;;;42.97;20.35;;;;;;;;;;5003336;28;20033;-80
2022/11/24 02:37:31;;;;;;;44.40;19.20;;;;;;;;;;5037216;28;20025;-79
2022/11/24 02:39:56;;;;;;;37.85;19.50;;;;;;;;;;5019433;28;20421;-79
2022/11/24 02:42:22;;;;;;;36.30;18.98;;;;;;;;;;5020094;28;20407;-79
2022/11/24 02:44:48;;;;;;;32.53;16.77;;;;;;;;;;5022557;28;20022;-80
2022/11/24 02:47:13;;;;;;;29.05;15.82;;;;;;;;;;5041666;28;20022;-80
2022/11/24 02:49:39;;;;;;;30.75;15.20;;;;;;;;;;5019414;28;20028;-80
2022/11/24 02:52:04;;;;;;;25.77;14.07;;;;;;;;;;5018931;28;20036;-80
2022/11/24 02:54:30;;;;;;;27.55;13.60;;;;;;;;;;5019107;28;20059;-79
2022/11/24 02:56:56;;;;;;;25.65;13.93;;;;;;;;;;5036498;28;20073;-80
2022/11/24 02:59:21;;;;;;;24.13;12.85;;;;;;;;;;5035549;28;20053;-79
2022/11/24 03:01:46;;;;;;;18.90;10.25;;;;;;;;;;5035490;28;20520;-80
2022/11/24 03:04:12;;;;;;;19.38;9.90;;;;;;;;;;5036855;28;20029;-80
2022/11/24 03:06:37;;;;;;;15.82;8.27;;;;;;;;;;5019423;28;20033;-79
2022/11/24 03:09:03;;;;;;;10.93;6.68;;;;;;;;;;5036973;28;20029;-80
2022/11/24 03:11:29;;;;;;;9.50;5.45;;;;;;;;;;5018652;28;20044;-80
2022/11/24 03:13:54;;;;;;;7.65;4.93;;;;;;;;;;5019235;28;20026;-80
2022/11/24 03:16:20;;;;;;;6.80;4.63;;;;;;;;;;5018561;28;20037;-79
2022/11/24 03:18:47;;;;;;;6.00;4.18;;;;;;;;;;5036191;28;20030;-79
2022/11/24 03:21:12;;;;;;;6.45;4.10;;;;;;;;;;5018846;28;20037;-79
2022/11/24 03:23:38;;;;;;;5.22;3.88;;;;;;;;;;5019135;28;20029;-80
2022/11/24 03:26:08;;;;;;;4.47;3.60;;;;;;;;;;5036683;28;20030;-80
2022/11/24 03:28:34;;;;;;;5.47;4.22;;;;;;;;;;5005335;28;20052;-80
2022/11/24 03:30:59;;;;;;;5.75;3.97;;;;;;;;;;5035963;28;20075;-80
2022/11/24 03:33:24;;;;;;;5.03;4.25;;;;;;;;;;5018427;28;20391;-79
2022/11/24 03:35:50;;;;;;;5.20;4.15;;;;;;;;;;5018388;28;20064;-79
2022/11/24 03:38:15;;;;;;;5.70;3.90;;;;;;;;;;5036123;28;20037;-79
2022/11/24 03:40:41;;;;;;;7.50;4.15;;;;;;;;;;5036736;28;20039;-78
2022/11/24 03:43:06;;;;;;;9.15;4.00;;;;;;;;;;5057018;28;20064;-79
2022/11/24 03:45:32;;;;;;;5.45;4.22;;;;;;;;;;5055597;28;20036;-79
2022/11/24 03:47:57;;;;;;;5.05;4.00;;;;;;;;;;5056736;28;20031;-78
2022/11/24 03:50:22;;;;;;;6.75;4.82;;;;;;;;;;5058215;28;20036;-79
2022/11/24 03:52:48;;;;;;;8.23;4.47;;;;;;;;;;5055398;28;20057;-79
2022/11/24 03:55:13;;;;;;;5.75;4.32;;;;;;;;;;5055524;28;20170;-79
2022/11/24 03:57:39;;;;;;;6.07;4.47;;;;;;;;;;5056102;28;20110;-79
2022/11/24 04:00:05;;;;;;;5.15;4.07;;;;;;;;;;5021663;28;20033;-79
2022/11/24 04:02:31;;;;;;;5.38;4.03;;;;;;;;;;5055388;28;20033;-79
2022/11/24 04:04:56;;;;;;;4.68;4.07;;;;;;;;;;5037506;28;20025;-79
2022/11/24 04:07:22;;;;;;;8.93;4.28;;;;;;;;;;5037449;28;20417;-79
2022/11/24 04:09:47;;;;;;;7.15;4.63;;;;;;;;;;5062009;28;20428;-80
2022/11/24 04:14:56;;;;;;;5.40;4.15;;;;;;;;;;5039867;28;20472;-80
2022/11/24 04:17:22;;;;;;;7.13;3.97;;;;;;;;;;5037354;28;20029;-79
2022/11/24 04:19:47;;;;;;;4.15;3.28;;;;;;;;;;5055103;28;20060;-79
2022/11/24 04:22:12;;;;;;;4.45;3.17;;;;;;;;;;5037271;28;20028;-80
2022/11/24 04:24:38;;;;;;;5.88;3.58;;;;;;;;;;5045623;28;20026;-79
2022/11/24 04:27:03;;;;;;;4.25;3.38;;;;;;;;;;5053640;28;20320;-79
2022/11/24 04:29:29;;;;;;;4.60;3.70;;;;;;;;;;5020492;28;20036;-79
2022/11/24 04:31:54;;;;;;;4.68;3.55;;;;;;;;;;5021007;28;20040;-79
2022/11/24 04:34:20;;;;;;;4.75;3.20;;;;;;;;;;5054835;28;20470;-80
2022/11/24 04:36:45;;;;;;;4.05;2.95;;;;;;;;;;5037330;28;20044;-79
2022/11/24 04:39:11;;;;;;;4.22;3.28;;;;;;;;;;5037098;28;20033;-80
2022/11/24 04:41:36;;;;;;;4.68;3.08;;;;;;;;;;5037203;28;20021;-81
2022/11/24 04:44:01;;;;;;;3.38;2.70;;;;;;;;;;5036408;28;20458;-80
2022/11/24 04:46:27;;;;;;;4.32;3.20;;;;;;;;;;5036128;28;20035;-80
2022/11/24 04:48:52;;;;;;;3.58;3.05;;;;;;;;;;5020789;28;20120;-80
2022/11/24 04:51:18;;;;;;;4.20;2.42;;;;;;;;;;5054390;28;20028;-79
2022/11/24 04:53:43;;;;;;;4.53;3.30;;;;;;;;;;5036773;28;20128;-80
2022/11/24 04:56:09;;;;;;;4.80;3.15;;;;;;;;;;5036773;28;20037;-80
2022/11/24 04:58:34;;;;;;;6.63;3.55;;;;;;;;;;5036467;28;20112;-80
2022/11/24 05:01:00;;;;;;;5.45;3.60;;;;;;;;;;5020169;28;20032;-80
2022/11/24 05:03:25;;;;;;;3.97;3.22;;;;;;;;;;5036512;28;20021;-80
2022/11/24 05:05:51;;;;;;;4.93;3.05;;;;;;;;;;5054254;28;20031;-80
2022/11/24 05:08:16;;;;;;;3.67;2.95;;;;;;;;;;5020114;28;20028;-81
2022/11/24 05:10:41;;;;;;;4.22;3.08;;;;;;;;;;5034673;28;20447;-82
2022/11/24 05:13:11;;;;;;;4.45;3.05;;;;;;;;;;4998971;28;20025;-82
2022/11/24 05:15:38;;;;;;;3.47;2.67;;;;;;;;;;5016616;28;20459;-81
2022/11/24 05:18:07;;;;;;;4.43;2.63;;;;;;;;;;5016630;28;20272;-80
2022/11/24 05:20:33;;;;;;;4.72;2.80;;;;;;;;;;5023190;28;20029;-80
2022/11/24 05:23:05;;;;;;;7.78;3.28;;;;;;;;;;5013273;28;20375;-80
2022/11/24 05:25:30;;;;;;;4.57;3.67;;;;;;;;;;4995926;28;20025;-80
2022/11/24 05:28:00;;;;;;;6.07;4.00;;;;;;;;;;4996561;28;20022;-80
2022/11/24 05:30:26;;;;;;;14.60;5.40;;;;;;;;;;4996619;28;20022;-80
2022/11/24 05:32:51;;;;;;;15.70;5.93;;;;;;;;;;5015377;28;20428;-80
2022/11/24 05:35:17;;;;;;;11.20;4.88;;;;;;;;;;5018994;28;20022;-80
2022/11/24 05:37:44;;;;;;;10.80;5.13;;;;;;;;;;5003896;28;20026;-78
2022/11/24 05:40:10;;;;;;;11.40;5.30;;;;;;;;;;5050707;28;20037;-81
2022/11/24 05:42:41;;;;;;;10.50;5.13;;;;;;;;;;5033863;28;20462;-81
2022/11/24 05:45:11;;;;;;;10.15;5.55;;;;;;;;;;5008978;28;20534;-80
2022/11/24 05:47:36;;;;;;;8.00;4.45;;;;;;;;;;4980472;28;20037;-80
2022/11/24 05:50:02;;;;;;;6.53;4.70;;;;;;;;;;5022668;28;20315;-80
2022/11/24 05:52:28;;;;;;;5.15;3.60;;;;;;;;;;5031908;28;20223;-78
2022/11/24 05:54:53;;;;;;;7.22;3.85;;;;;;;;;;5016590;28;20025;-80
2022/11/24 05:57:19;;;;;;;5.60;4.15;;;;;;;;;;5020221;28;20605;-80
2022/11/24 05:59:52;;;;;;;4.88;4.35;;;;;;;;;;5033064;28;20075;-82
2022/11/24 06:02:23;;;;;;;8.30;5.70;;;;;;;;;;5032214;28;20029;-82
2022/11/24 06:04:49;;;;;;;10.13;6.88;;;;;;;;;;5027538;28;20029;-80
2022/11/24 06:07:14;;;;;;;11.90;7.90;;;;;;;;;;5026438;28;20024;-82
2022/11/24 06:09:41;;;;;;;7.20;5.72;;;;;;;;;;5012738;28;20028;-79
2022/11/24 06:12:07;;;;;;;7.70;5.80;;;;;;;;;;5009945;28;20054;-81
2022/11/24 06:14:33;;;;;;;9.30;6.00;;;;;;;;;;5034255;28;20135;-78
2022/11/24 06:16:58;;;;;;;11.52;7.03;;;;;;;;;;5016341;28;20136;-78
2022/11/24 06:19:24;;;;;;;12.95;8.38;;;;;;;;;;5037251;28;20029;-80
2022/11/24 06:21:50;;;;;;;24.02;11.82;;;;;;;;;;5011570;28;20551;-78
2022/11/24 06:24:15;;;;;;;18.45;10.80;;;;;;;;;;5028190;28;20035;-79
2022/11/24 06:26:41;;;;;;;17.85;11.63;;;;;;;;;;5019925;28;20033;-79
2022/11/24 06:29:06;;;;;;;18.70;10.20;;;;;;;;;;5041334;28;20025;-79
2022/11/24 06:31:32;;;;;;;16.70;9.55;;;;;;;;;;5034879;28;20048;-78
2022/11/24 06:33:58;;;;;;;12.75;8.25;;;;;;;;;;5028046;28;20076;-78
2022/11/24 06:36:24;;;;;;;14.75;8.80;;;;;;;;;;5023586;28;20033;-77
2022/11/24 06:38:50;;;;;;;19.35;8.93;;;;;;;;;;5033112;28;20025;-78
2022/11/24 06:41:18;;;;;;;13.25;7.68;;;;;;;;;;5036460;28;20035;-76
2022/11/24 06:43:56;;;;;;;14.98;7.20;;;;;;;;;;5046224;28;20064;-81
2022/11/24 06:46:22;;;;;;;11.13;7.15;;;;;;;;;;4994922;28;20117;-78
2022/11/24 06:49:09;;;;;;;12.38;7.03;;;;;;;;;;5011983;28;20119;-81
2022/11/24 06:51:35;;;;;;;21.45;10.70;;;;;;;;;;5026269;28;20077;-78
2022/11/24 06:54:00;;;;;;;31.60;14.07;;;;;;;;;;5014744;28;20077;-80
2022/11/24 06:56:33;;;;;;;29.77;11.77;;;;;;;;;;5033724;28;20050;-80
2022/11/24 06:59:00;;;;;;;30.08;12.18;;;;;;;;;;5009800;28;20067;-80
2022/11/24 07:01:26;;;;;;;23.42;11.48;;;;;;;;;;5015984;28;20464;-79
2022/11/24 07:03:52;;;;;;;27.02;12.15;;;;;;;;;;5024767;28;20096;-80
2022/11/24 07:06:18;;;;;;;31.00;13.00;;;;;;;;;;5000460;28;20029;-81
2022/11/24 07:08:43;;;;;;;29.60;12.20;;;;;;;;;;4999477;28;20047;-82
2022/11/24 07:11:20;;;;;;;41.60;15.45;;;;;;;;;;5031751;28;20051;-78
2022/11/24 07:13:46;;;;;;;29.70;12.57;;;;;;;;;;5009022;28;20033;-79
2022/11/24 07:16:19;;;;;;;15.80;9.68;;;;;;;;;;5029016;28;20030;-80
2022/11/24 07:18:45;;;;;;;14.50;8.55;;;;;;;;;;5035609;28;20025;-78
2022/11/24 07:21:11;;;;;;;13.93;8.90;;;;;;;;;;5020230;28;20029;-81
2022/11/24 07:23:37;;;;;;;17.20;9.68;;;;;;;;;;5007575;28;20129;-79
2022/11/24 07:26:03;;;;;;;18.23;9.75;;;;;;;;;;5035483;28;20032;-79
2022/11/24 07:28:29;;;;;;;22.90;11.43;;;;;;;;;;5028948;28;20490;-80
2022/11/24 07:30:55;;;;;;;24.55;12.77;;;;;;;;;;5005185;28;20079;-80
2022/11/24 07:33:24;;;;;;;26.58;13.23;;;;;;;;;;5041864;28;20386;-80
2022/11/24 07:35:53;;;;;;;24.98;13.18;;;;;;;;;;5015356;28;20018;-80
2022/11/24 07:38:19;;;;;;;24.70;13.32;;;;;;;;;;5004937;28;20104;-79
2022/11/24 07:40:45;;;;;;;28.38;15.13;;;;;;;;;;5032780;28;20120;-79
2022/11/24 07:43:10;;;;;;;31.95;15.52;;;;;;;;;;5027588;28;20029;-81
2022/11/24 07:45:36;;;;;;;33.10;16.05;;;;;;;;;;5014668;28;20028;-81
2022/11/24 07:48:02;;;;;;;34.80;15.80;;;;;;;;;;5038518;28;20158;-80
2022/11/24 07:50:28;;;;;;;33.45;15.90;;;;;;;;;;5053373;28;20048;-78
2022/11/24 07:52:54;;;;;;;33.65;15.73;;;;;;;;;;4991195;28;20088;-81
2022/11/24 07:55:19;;;;;;;31.70;15.50;;;;;;;;;;5010911;28;20026;-78
2022/11/24 07:57:45;;;;;;;31.60;15.98;;;;;;;;;;4994757;28;20419;-80
2022/11/24 08:00:11;;;;;;;29.80;14.80;;;;;;;;;;5000983;28;20026;-79
2022/11/24 08:02:37;;;;;;;23.00;11.85;;;;;;;;;;5012481;28;20467;-80
2022/11/24 08:05:03;;;;;;;19.90;11.27;;;;;;;;;;5012429;28;20029;-82
2022/11/24 08:07:28;;;;;;;21.30;10.77;;;;;;;;;;4997411;28;20382;-81
2022/11/24 08:09:54;;;;;;;18.52;10.50;;;;;;;;;;5033073;28;20029;-82
2022/11/24 08:12:20;;;;;;;17.88;9.30;;;;;;;;;;5000471;28;20029;-81
2022/11/24 08:14:50;;;;;;;17.35;8.85;;;;;;;;;;5032969;28;20120;-82
2022/11/24 08:17:16;;;;;;;17.98;9.27;;;;;;;;;;5008562;28;20022;-79
2022/11/24 08:19:42;;;;;;;17.90;9.40;;;;;;;;;;5013366;28;20053;-79
2022/11/24 08:22:08;;;;;;;17.83;9.20;;;;;;;;;;4996930;28;20037;-82
2022/11/24 08:25:30;;;;;;;11.95;7.20;;;;;;;;;;5016428;28;20030;-82
2022/11/24 08:27:59;;;;;;;10.23;6.32;;;;;;;;;;4943014;28;20544;-82
2022/11/24 08:30:25;;;;;;;12.02;6.38;;;;;;;;;;4996416;28;20021;-79
2022/11/24 08:32:51;;;;;;;10.32;6.90;;;;;;;;;;5013116;28;20033;-81
2022/11/24 08:35:16;;;;;;;9.52;6.30;;;;;;;;;;4992024;28;20040;-79
2022/11/24 08:37:42;;;;;;;9.45;6.40;;;;;;;;;;5016205;28;20541;-79
2022/11/24 08:40:08;;;;;;;8.25;5.78;;;;;;;;;;5030280;28;20149;-80
2022/11/24 08:42:34;;;;;;;9.38;5.80;;;;;;;;;;5009877;28;20037;-80
2022/11/24 08:44:59;;;;;;;12.05;5.45;;;;;;;;;;5030757;28;20029;-80
2022/11/24 08:47:25;;;;;;;8.13;5.95;;;;;;;;;;5013187;28;20106;-81
2022/11/24 08:49:50;;;;;;;7.28;5.07;;;;;;;;;;5033305;28;20060;-80
2022/11/24 08:52:16;;;;;;;8.63;5.18;;;;;;;;;;5010304;28;20049;-79
2022/11/24 08:54:43;;;;;;;6.70;4.65;;;;;;;;;;5005612;28;20025;-77
2022/11/24 08:57:15;;;;;;;8.35;5.10;;;;;;;;;;5004942;28;20034;-81
2022/11/24 08:59:41;;;;;;;7.55;4.93;;;;;;;;;;4993239;28;20034;-78
2022/11/24 09:02:10;;;;;;;7.97;5.20;;;;;;;;;;5003734;28;20041;-80
2022/11/24 09:04:37;;;;;;;8.48;5.53;;;;;;;;;;5011727;28;20387;-80
2022/11/24 09:07:02;;;;;;;8.77;5.32;;;;;;;;;;5014863;28;20030;-80
2022/11/24 09:09:28;;;;;;;9.57;6.32;;;;;;;;;;5017331;28;20026;-81
2022/11/24 09:11:53;;;;;;;6.75;4.45;;;;;;;;;;4991941;28;20034;-77
2022/11/24 09:14:19;;;;;;;6.35;4.75;;;;;;;;;;4989394;28;20324;-79
2022/11/24 09:16:44;;;;;;;10.68;5.40;;;;;;;;;;4992656;28;20030;-79
2022/11/24 09:19:10;;;;;;;9.45;5.47;;;;;;;;;;5009451;28;20113;-78
2022/11/24 09:21:38;;;;;;;8.95;5.85;;;;;;;;;;4978917;28;20033;-78
2022/11/24 09:24:07;;;;;;;11.90;6.82;;;;;;;;;;4978987;28;20030;-78
2022/11/24 09:26:34;;;;;;;10.20;6.38;;;;;;;;;;5012166;28;20026;-78
2022/11/24 09:29:00;;;;;;;7.07;4.97;;;;;;;;;;4994574;28;20102;-77
2022/11/24 09:31:28;;;;;;;7.05;5.20;;;;;;;;;;4995096;28;20050;-79
2022/11/24 09:33:53;;;;;;;7.53;5.20;;;;;;;;;;4993759;28;20064;-79
2022/11/24 09:36:19;;;;;;;11.18;5.15;;;;;;;;;;4963057;28;20065;-79
2022/11/24 09:38:44;;;;;;;8.82;5.40;;;;;;;;;;4995926;28;20034;-79
2022/11/24 09:41:16;;;;;;;6.95;5.60;;;;;;;;;;5027634;28;20037;-78
2022/11/24 09:43:56;;;;;;;9.18;5.63;;;;;;;;;;5035725;28;20045;-79
2022/11/24 09:46:21;;;;;;;8.90;5.43;;;;;;;;;;5017109;28;20655;-78
2022/11/24 09:48:50;;;;;;;8.15;5.32;;;;;;;;;;5018312;28;20041;-78
2022/11/24 09:51:16;;;;;;;8.98;5.38;;;;;;;;;;5016253;28;20462;-80
2022/11/24 09:53:50;;;;;;;11.02;6.47;;;;;;;;;;5008468;28;20040;-81
2022/11/24 09:56:24;;;;;;;11.93;5.97;;;;;;;;;;5011810;28;20037;-80
2022/11/24 09:59:16;;;;;;;12.52;5.03;;;;;;;;;;5002646;28;20029;-78
2022/11/24 10:01:43;;;;;;;6.00;4.20;;;;;;;;;;5027116;28;20034;-75
2022/11/24 10:04:29;;;;;;;6.20;4.38;;;;;;;;;;5014279;28;20076;-80
2022/11/24 10:07:06;;;;;;;7.63;4.57;;;;;;;;;;5011438;28;20435;-88
2022/11/24 10:09:35;;;;;;;6.35;5.15;;;;;;;;;;5001182;28;20762;-80
2022/11/24 10:12:27;;;;;;;8.57;5.65;;;;;;;;;;5023964;28;20475;-81
2022/11/24 10:15:13;;;;;;;8.95;5.10;;;;;;;;;;5021640;28;20064;-82
2022/11/24 10:17:56;;;;;;;5.03;4.53;;;;;;;;;;5032843;28;20040;-81
2022/11/24 10:20:31;;;;;;;7.38;5.00;;;;;;;;;;5014970;28;20064;-83
2022/11/24 10:23:21;;;;;;;8.30;5.28;;;;;;;;;;5017247;28;20041;-80
2022/11/24 10:25:57;;;;;;;12.00;5.68;;;;;;;;;;5015365;28;20029;-80
2022/11/24 10:28:35;;;;;;;8.80;5.90;;;;;;;;;;4998353;28;20475;-82
2022/11/24 10:31:31;;;;;;;7.68;5.65;;;;;;;;;;4989814;28;20045;-80
2022/11/24 10:34:00;;;;;;;7.95;4.80;;;;;;;;;;5027366;28;20041;-77
2022/11/24 10:37:22;;;;;;;7.57;5.50;;;;;;;;;;5009818;28;20057;-79
2022/11/24 10:40:08;;;;;;;7.47;5.72;;;;;;;;;;5019341;28;20083;-81
2022/11/24 10:42:39;;;;;;;8.75;6.10;;;;;;;;;;5014743;28;20470;-77
2022/11/24 10:45:13;;;;;;;10.00;5.55;;;;;;;;;;5013117;28;20542;-78
2022/11/24 10:47:40;;;;;;;10.07;6.70;;;;;;;;;;5033842;28;20040;-77
2022/11/24 10:50:20;;;;;;;10.60;6.55;;;;;;;;;;5013496;28;20062;-79
2022/11/24 10:53:11;;;;;;;9.02;5.57;;;;;;;;;;5031084;28;20037;-79
2022/11/24 10:55:55;;;;;;;11.35;6.57;;;;;;;;;;5029506;28;20040;-78
2022/11/24 10:58:31;;;;;;;10.00;5.55;;;;;;;;;;5033064;28;20114;-80
2022/11/24 11:01:01;;;;;;;11.27;6.53;;;;;;;;;;5015213;28;20132;-80
2022/11/24 11:03:32;;;;;;;10.45;6.88;;;;;;;;;;5017931;28;20033;-80
2022/11/24 11:06:00;;;;;;;;;;;;;;;;;;5009234;28;20025;-80
2022/11/24 11:08:29;;;;;;;7.65;5.78;;;;;;;;;;5032742;28;19917;-80
2022/11/24 11:11:22;;;;;;;10.70;6.40;;;;;;;;;;5039330;28;20039;-79
2022/11/24 11:13:54;;;;;;;11.98;6.72;;;;;;;;;;5029495;28;20025;-80
2022/11/24 11:16:42;;;;;;;12.73;6.65;;;;;;;;;;5017344;28;20459;-78
2022/11/24 11:19:35;;;;;;;10.80;6.60;;;;;;;;;;5028151;28;20448;-79
2022/11/24 11:22:18;;;;;;;10.32;6.57;;;;;;;;;;5045930;28;20029;-79
2022/11/24 11:24:45;;;;;;;9.73;6.57;;;;;;;;;;5028442;28;20033;-80
2022/11/24 11:27:21;;;;;;;11.98;7.00;;;;;;;;;;5039438;28;20032;-80
2022/11/24 11:29:47;;;;;;;8.88;6.18;;;;;;;;;;5041104;28;20048;-79
2022/11/24 11:32:18;;;;;;;13.55;7.47;;;;;;;;;;5003795;28;20072;-81
2022/11/24 11:34:44;;;;;;;12.77;7.95;;;;;;;;;;5049837;28;20029;-82
2022/11/24 11:37:11;;;;;;;15.10;7.97;;;;;;;;;;5012803;28;20037;-79
2022/11/24 11:39:39;;;;;;;13.95;7.22;;;;;;;;;;5007874;28;20037;-78
2022/11/24 11:42:17;;;;;;;10.80;7.10;;;;;;;;;;5017897;28;20029;-79
2022/11/24 11:45:05;;;;;;;8.98;6.25;;;;;;;;;;5004095;28;20037;-78
2022/11/24 11:47:40;;;;;;;12.00;7.07;;;;;;;;;;5016045;28;20039;-79
2022/11/24 11:50:15;;;;;;;9.45;6.38;;;;;;;;;;5016231;28;20060;-79
2022/11/24 11:52:43;;;;;;;15.65;6.40;;;;;;;;;;5023208;28;20049;-79
2022/11/24 11:55:42;;;;;;;8.88;6.25;;;;;;;;;;5048099;28;20047;-79
2022/11/24 11:58:32;;;;;;;14.55;6.72;;;;;;;;;;5032460;28;20031;-78
2022/11/24 12:01:13;;;;;;;9.68;6.60;;;;;;;;;;5021558;28;20132;-79
2022/11/24 12:03:44;;;;;;;14.75;7.05;;;;;;;;;;5035171;28;20039;-79
2022/11/24 12:06:41;;;;;;;12.80;7.30;;;;;;;;;;5035796;28;20034;-79
2022/11/24 12:09:28;;;;;;;13.48;7.88;;;;;;;;;;5038747;28;20425;-80
2022/11/24 12:12:08;;;;;;;21.13;9.35;;;;;;;;;;5030943;28;20048;-80
2022/11/24 12:14:49;;;;;;;14.48;7.68;;;;;;;;;;5028230;28;20030;-79
2022/11/24 12:17:43;;;;;;;11.50;6.95;;;;;;;;;;5035436;28;20068;-79
2022/11/24 12:20:33;;;;;;;9.10;6.35;;;;;;;;;;5014861;28;20385;-77
2022/11/24 12:23:17;;;;;;;8.52;4.85;;;;;;;;;;5031633;28;20041;-78
2022/11/24 12:25:43;;;;;;;7.43;4.50;;;;;;;;;;5037181;28;20029;-80
2022/11/24 12:28:27;;;;;;;6.65;4.60;;;;;;;;;;5015481;28;20045;-78
2022/11/24 12:31:10;;;;;;;6.45;4.78;;;;;;;;;;5030380;28;20033;-80
2022/11/24 12:33:43;;;;;;;6.05;4.72;;;;;;;;;;4998219;28;20049;-78
2022/11/24 12:36:41;;;;;;;7.45;5.07;;;;;;;;;;5003919;28;20121;-78
2022/11/24 12:39:15;;;;;;;6.85;4.32;;;;;;;;;;5030286;28;20445;-78
2022/11/24 12:42:03;;;;;;;8.30;5.47;;;;;;;;;;5031142;28;20068;-79
2022/11/24 12:44:41;;;;;;;7.55;4.88;;;;;;;;;;5049882;28;20040;-79
2022/11/24 12:47:12;;;;;;;8.15;5.03;;;;;;;;;;5049112;28;20025;-78
2022/11/24 12:49:43;;;;;;;6.13;4.15;;;;;;;;;;5049299;28;20029;-79
2022/11/24 12:52:15;;;;;;;6.45;4.10;;;;;;;;;;5032509;28;20032;-78
2022/11/24 12:54:40;;;;;;;6.97;4.45;;;;;;;;;;5050769;28;20173;-78
2022/11/24 12:57:33;;;;;;;6.63;4.88;;;;;;;;;;5016860;28;20048;-78
2022/11/24 13:00:16;;;;;;;5.90;3.92;;;;;;;;;;5050546;28;20447;-78
2022/11/24 13:03:08;;;;;;;5.88;3.97;;;;;;;;;;5017517;28;20139;-79
2022/11/24 13:05:58;;;;;;;6.47;4.30;;;;;;;;;;5050981;28;20070;-79
2022/11/24 13:08:25;;;;;;;6.72;4.45;;;;;;;;;;5033325;28;20071;-78
2022/11/24 13:10:50;;;;;;;9.27;4.53;;;;;;;;;;5019076;28;20032;-79
2022/11/24 13:13:16;;;;;;;7.03;3.97;;;;;;;;;;5036664;28;20442;-78
2022/11/24 13:15:53;;;;;;;6.72;4.72;;;;;;;;;;5054841;28;20419;-79
2022/11/24 13:18:56;;;;;;;8.02;5.20;;;;;;;;;;5054209;28;20036;-79
2022/11/24 13:21:40;;;;;;;9.70;5.28;;;;;;;;;;5055790;28;20078;-79
2022/11/24 13:24:20;;;;;;;5.75;4.20;;;;;;;;;;5038767;28;20025;-79
2022/11/24 13:26:52;;;;;;;6.80;4.65;;;;;;;;;;5019838;28;20036;-78
2022/11/24 13:29:27;;;;;;;12.23;7.18;;;;;;;;;;5036824;28;20029;-79
2022/11/24 13:32:01;;;;;;;5.80;3.67;;;;;;;;;;5036449;28;20044;-79
2022/11/24 13:34:39;;;;;;;6.78;3.50;;;;;;;;;;5054788;28;20040;-79
2022/11/24 13:37:26;;;;;;;4.00;3.17;;;;;;;;;;5012305;28;20356;-79
2022/11/24 13:40:00;;;;;;;6.85;3.00;;;;;;;;;;4996848;28;20037;-78
2022/11/24 13:42:26;;;;;;;5.60;3.38;;;;;;;;;;4998495;28;20022;-79
2022/11/24 13:44:59;;;;;;;7.97;3.55;;;;;;;;;;4962040;28;20026;-80
2022/11/24 13:47:31;;;;;;;4.03;3.10;;;;;;;;;;4993303;28;20499;-78
2022/11/24 13:49:57;;;;;;;5.40;2.72;;;;;;;;;;5012383;28;20022;-79
2022/11/24 13:52:44;;;;;;;7.25;2.80;;;;;;;;;;5014686;28;20038;-80
2022/11/24 13:55:10;;;;;;;3.45;2.67;;;;;;;;;;4996720;28;20030;-79
2022/11/24 13:57:59;;;;;;;5.35;2.95;;;;;;;;;;5014141;28;20120;-80
2022/11/24 14:00:25;;;;;;;4.10;2.75;;;;;;;;;;4979439;28;20045;-79
2022/11/24 14:02:52;;;;;;;3.88;3.10;;;;;;;;;;5019543;28;20030;-79
2022/11/24 14:05:18;;;;;;;5.72;3.88;;;;;;;;;;4996505;28;20026;-80
2022/11/24 14:07:45;;;;;;;5.85;4.07;;;;;;;;;;4996350;28;20021;-79
2022/11/24 14:10:43;;;;;;;9.13;6.07;;;;;;;;;;4995893;28;20088;-79
2022/11/24 14:13:35;;;;;;;8.85;4.95;;;;;;;;;;4948271;28;20045;-79
2022/11/24 14:16:09;;;;;;;8.70;5.43;;;;;;;;;;4993888;28;20084;-79
2022/11/24 14:18:36;;;;;;;10.02;5.90;;;;;;;;;;5013859;28;20030;-80
2022/11/24 14:21:24;;;;;;;6.28;4.70;;;;;;;;;;5000830;28;20403;-80
2022/11/24 14:24:02;;;;;;;6.80;4.00;;;;;;;;;;5002926;28;20044;-77
2022/11/24 14:26:38;;;;;;;6.57;4.40;;;;;;;;;;5002185;28;20037;-81
2022/11/24 14:29:05;;;;;;;8.57;4.22;;;;;;;;;;4985441;28;20048;-79
2022/11/24 14:31:31;;;;;;;7.00;4.65;;;;;;;;;;5000851;28;20038;-79
2022/11/24 14:34:18;;;;;;;8.95;5.13;;;;;;;;;;5016431;28;20097;-77
2022/11/24 14:36:43;;;;;;;9.25;5.10;;;;;;;;;;5000148;28;20080;-80
2022/11/24 14:39:13;;;;;;;8.70;5.53;;;;;;;;;;4983562;28;20419;-79
2022/11/24 14:41:39;;;;;;;10.38;5.80;;;;;;;;;;4985041;28;20383;-79
2022/11/24 14:44:14;;;;;;;10.52;6.18;;;;;;;;;;5000562;28;20060;-80
2022/11/24 14:46:40;;;;;;;10.85;6.15;;;;;;;;;;4983752;28;20026;-79
2022/11/24 14:49:05;;;;;;;11.23;6.93;;;;;;;;;;4983441;28;20028;-79
2022/11/24 14:51:36;;;;;;;12.90;6.57;;;;;;;;;;4999569;28;20041;-80
2022/11/24 14:54:12;;;;;;;10.68;6.68;;;;;;;;;;4999166;28;20124;-79
2022/11/24 14:56:38;;;;;;;12.93;6.80;;;;;;;;;;4984701;28;20038;-79